createdAt,value
2019-02-10T00:00:05.519Z,7.11
2019-02-10T00:02:31.687Z,7.10
2019-02-10T00:04:57.841Z,6.92
2019-02-10T00:07:26.600Z,6.68
2019-02-10T00:09:52.759Z,6.87
2019-02-10T00:12:19.464Z,6.89
2019-02-10T00:14:45.795Z,7.05
2019-02-10T00:17:11.965Z,7.28
2019-02-10T00:19:38.119Z,7.40
2019-02-10T00:22:04.411Z,7.46
2019-02-10T00:24:31.030Z,7.84
2019-02-10T00:26:57.196Z,7.74
2019-02-10T00:29:23.489Z,7.79
2019-02-10T00:31:49.761Z,7.77
2019-02-10T00:34:16.019Z,7.69
2019-02-10T00:36:42.341Z,7.76
2019-02-10T00:39:09.000Z,7.77
2019-02-10T00:41:35.261Z,7.81
2019-02-10T00:44:01.583Z,7.60
2019-02-10T00:46:27.826Z,7.90
2019-02-10T00:48:54.000Z,7.81
2019-02-10T00:51:20.307Z,7.50
2019-02-10T00:53:46.458Z,7.05
2019-02-10T00:56:12.713Z,7.84
2019-02-10T00:58:39.028Z,8.15
2019-02-10T01:01:05.320Z,8.36
2019-02-10T01:03:31.485Z,8.18
2019-02-10T01:05:57.788Z,8.07
2019-02-10T01:08:24.270Z,8.15
2019-02-10T01:10:50.430Z,7.94
2019-02-10T01:13:16.742Z,8.06
2019-02-10T01:15:43.017Z,8.04
2019-02-10T01:18:09.183Z,8.28
2019-02-10T01:20:35.485Z,8.20
2019-02-10T01:23:01.971Z,8.18
2019-02-10T01:25:28.267Z,8.05
2019-02-10T01:27:54.571Z,8.16
2019-02-10T01:30:20.852Z,8.38
2019-02-10T01:32:47.118Z,8.37
2019-02-10T01:35:13.406Z,8.51
2019-02-10T01:37:41.945Z,8.52
2019-02-10T01:40:09.607Z,8.38
2019-02-10T01:42:35.829Z,8.67
2019-02-10T01:45:02.111Z,8.37
2019-02-10T01:47:28.363Z,7.59
2019-02-10T01:49:55.163Z,6.35
2019-02-10T01:52:21.334Z,6.09
2019-02-10T01:54:47.499Z,6.50
2019-02-10T01:57:13.782Z,6.65
2019-02-10T01:59:40.038Z,6.71
2019-02-10T02:02:06.311Z,6.66
2019-02-10T02:04:32.507Z,6.63
2019-02-10T02:06:58.769Z,6.76
2019-02-10T02:09:24.941Z,6.71
2019-02-10T02:11:51.133Z,6.73
2019-02-10T02:14:17.390Z,6.89
2019-02-10T02:16:43.554Z,6.81
2019-02-10T02:19:09.861Z,6.90
2019-02-10T02:21:36.021Z,6.91
2019-02-10T02:24:02.296Z,6.93
2019-02-10T02:26:28.673Z,6.68
2019-02-10T02:28:54.826Z,6.67
2019-02-10T02:31:21.083Z,6.71
2019-02-10T02:33:47.393Z,6.76
2019-02-10T02:36:13.566Z,6.89
2019-02-10T02:38:39.730Z,6.92
2019-02-10T02:41:05.923Z,6.74
2019-02-10T02:43:32.103Z,6.67
2019-02-10T02:45:58.266Z,6.57
2019-02-10T02:48:24.564Z,6.65
2019-02-10T02:50:50.728Z,6.55
2019-02-10T02:53:16.995Z,6.63
2019-02-10T02:55:43.210Z,6.78
2019-02-10T02:58:09.372Z,6.53
2019-02-10T03:00:35.530Z,6.61
2019-02-10T03:03:01.742Z,6.61
2019-02-10T03:05:27.892Z,6.71
2019-02-10T03:07:54.067Z,6.53
2019-02-10T03:10:20.360Z,6.47
2019-02-10T03:12:46.520Z,6.54
2019-02-10T03:15:12.692Z,6.48
2019-02-10T03:17:38.889Z,6.62
2019-02-10T03:20:06.588Z,6.48
2019-02-10T03:22:32.720Z,6.37
2019-02-10T03:24:58.983Z,6.42
2019-02-10T03:27:25.280Z,6.52
2019-02-10T03:29:51.447Z,6.42
2019-02-10T03:32:17.747Z,6.35
2019-02-10T03:34:43.900Z,6.47
2019-02-10T03:37:10.086Z,6.23
2019-02-10T03:39:36.378Z,6.37
2019-02-10T03:42:02.625Z,6.09
2019-02-10T03:44:28.988Z,6.00
2019-02-10T03:46:55.184Z,5.85
2019-02-10T03:49:21.349Z,5.52
2019-02-10T03:51:47.513Z,5.42
2019-02-10T03:54:13.703Z,5.39
2019-02-10T03:56:39.964Z,5.66
2019-02-10T03:59:06.129Z,5.64
2019-02-10T04:01:32.328Z,5.81
2019-02-10T04:03:58.584Z,6.05
2019-02-10T04:06:24.748Z,6.16
2019-02-10T04:08:51.047Z,6.32
2019-02-10T04:11:17.212Z,6.30
2019-02-10T04:13:43.379Z,6.34
2019-02-10T04:16:09.677Z,6.24
2019-02-10T04:18:35.853Z,6.41
2019-02-10T04:21:02.115Z,6.45
2019-02-10T04:23:28.412Z,6.78
2019-02-10T04:25:54.685Z,6.59
2019-02-10T04:28:20.993Z,6.57
2019-02-10T04:30:47.301Z,6.70
2019-02-10T04:33:13.560Z,6.66
2019-02-10T04:35:39.719Z,6.59
2019-02-10T04:38:06.039Z,6.85
2019-02-10T04:40:32.214Z,6.82
2019-02-10T04:42:58.364Z,6.67
2019-02-10T04:45:24.666Z,7.03
2019-02-10T04:47:50.837Z,7.07
2019-02-10T04:50:17.094Z,7.37
2019-02-10T04:52:43.283Z,7.70
2019-02-10T04:55:09.560Z,7.48
2019-02-10T04:57:35.724Z,7.50
2019-02-10T05:00:02.414Z,7.67
2019-02-10T05:02:28.688Z,7.61
2019-02-10T05:04:54.852Z,7.47
2019-02-10T05:07:21.139Z,7.33
2019-02-10T05:09:47.686Z,7.21
2019-02-10T05:12:13.854Z,6.98
2019-02-10T05:14:40.046Z,6.95
2019-02-10T05:17:06.209Z,6.93
2019-02-10T05:19:32.480Z,6.70
2019-02-10T05:21:58.682Z,6.53
2019-02-10T05:24:24.944Z,6.65
2019-02-10T05:26:51.206Z,6.66
2019-02-10T05:29:17.451Z,6.67
2019-02-10T05:31:43.622Z,6.69
2019-02-10T05:34:09.782Z,6.69
2019-02-10T05:36:35.965Z,6.79
2019-02-10T05:39:03.635Z,6.89
2019-02-10T05:41:29.793Z,6.84
2019-02-10T05:43:56.093Z,6.78
2019-02-10T05:46:22.272Z,7.10
2019-02-10T05:48:48.552Z,7.31
2019-02-10T05:51:14.850Z,8.00
2019-02-10T05:53:41.010Z,8.49
2019-02-10T05:56:07.278Z,8.74
2019-02-10T05:58:33.472Z,9.12
2019-02-10T06:01:37.170Z,9.31
2019-02-10T06:04:03.403Z,9.92
2019-02-10T06:06:29.549Z,10.24
2019-02-10T06:08:55.816Z,10.20
2019-02-10T06:11:22.118Z,10.14
2019-02-10T06:13:48.431Z,10.34
2019-02-10T06:16:15.049Z,10.52
2019-02-10T06:18:41.344Z,10.58
2019-02-10T06:21:07.616Z,10.56
2019-02-10T06:23:33.776Z,10.43
2019-02-10T06:25:59.969Z,10.44
2019-02-10T06:28:26.127Z,9.83
2019-02-10T06:30:53.147Z,9.77
2019-02-10T06:33:19.343Z,9.67
2019-02-10T06:35:45.502Z,10.40
2019-02-10T06:38:11.813Z,11.46
2019-02-10T06:40:38.101Z,11.40
2019-02-10T06:43:04.362Z,11.36
2019-02-10T06:45:30.522Z,12.22
2019-02-10T06:47:57.824Z,12.72
2019-02-10T06:50:24.293Z,13.44
2019-02-10T06:52:50.450Z,13.46
2019-02-10T06:55:16.643Z,13.64
2019-02-10T06:57:42.828Z,13.03
2019-02-10T07:00:23.631Z,12.70
2019-02-10T07:03:28.758Z,12.42
2019-02-10T07:05:54.949Z,12.82
2019-02-10T07:08:21.217Z,12.70
2019-02-10T07:10:47.372Z,12.88
2019-02-10T07:13:17.171Z,12.82
2019-02-10T07:16:20.685Z,13.40
2019-02-10T07:19:24.090Z,14.22
2019-02-10T07:21:50.356Z,13.48
2019-02-10T07:24:31.470Z,12.63
2019-02-10T07:27:16.279Z,12.62
2019-02-10T07:30:05.878Z,12.69
2019-02-10T07:32:35.692Z,12.62
2019-02-10T07:35:11.583Z,12.88
2019-02-10T07:37:50.233Z,12.97
2019-02-10T07:40:45.901Z,12.42
2019-02-10T07:43:43.385Z,12.68
2019-02-10T07:46:27.768Z,13.00
2019-02-10T07:49:00.521Z,12.91
2019-02-10T07:51:33.443Z,13.17
2019-02-10T07:54:29.000Z,13.46
2019-02-10T07:57:18.434Z,13.25
2019-02-10T07:59:54.164Z,13.18
2019-02-10T08:02:53.224Z,13.06
2019-02-10T08:05:28.731Z,13.56
2019-02-10T08:07:58.528Z,13.79
2019-02-10T08:10:49.698Z,14.11
2019-02-10T08:13:28.524Z,14.54
2019-02-10T08:16:20.696Z,14.81
2019-02-10T08:18:59.273Z,14.92
2019-02-10T08:21:41.079Z,14.15
2019-02-10T08:24:31.002Z,14.53
2019-02-10T08:27:00.768Z,14.77
2019-02-10T08:29:48.864Z,15.11
2019-02-10T08:32:27.141Z,14.31
2019-02-10T08:35:24.249Z,15.00
2019-02-10T08:38:10.785Z,15.67
2019-02-10T08:40:57.361Z,14.52
2019-02-10T08:43:27.134Z,14.42
2019-02-10T08:46:09.340Z,15.14
2019-02-10T08:48:47.535Z,15.59
2019-02-10T08:51:35.500Z,15.11
2019-02-10T08:54:01.666Z,13.40
2019-02-10T08:56:27.829Z,13.74
2019-02-10T08:58:54.012Z,13.60
2019-02-10T09:01:20.277Z,13.98
2019-02-10T09:03:46.440Z,14.28
2019-02-10T09:06:12.735Z,14.36
2019-02-10T09:08:38.911Z,14.55
2019-02-10T09:11:05.072Z,15.12
2019-02-10T09:13:31.374Z,15.04
2019-02-10T09:15:57.531Z,14.98
2019-02-10T09:18:24.098Z,15.10
2019-02-10T09:20:50.287Z,15.18
2019-02-10T09:23:16.447Z,16.20
2019-02-10T09:25:42.621Z,16.25
2019-02-10T09:28:08.812Z,16.60
2019-02-10T09:30:34.975Z,17.00
2019-02-10T09:33:01.136Z,17.13
2019-02-10T09:35:27.439Z,18.05
2019-02-10T09:37:53.630Z,18.75
2019-02-10T09:40:19.801Z,18.52
2019-02-10T09:42:46.097Z,18.76
2019-02-10T09:45:12.475Z,18.69
2019-02-10T09:47:38.855Z,19.17
2019-02-10T09:50:08.668Z,18.59
2019-02-10T09:52:34.946Z,19.11
2019-02-10T09:55:01.226Z,19.74
2019-02-10T09:57:27.437Z,20.42
2019-02-10T09:59:53.696Z,20.08
2019-02-10T10:02:19.853Z,19.68
2019-02-10T10:04:46.169Z,20.39
2019-02-10T10:07:12.452Z,20.44
2019-02-10T10:09:38.641Z,19.66
2019-02-10T10:12:04.853Z,19.85
2019-02-10T10:14:31.444Z,20.79
2019-02-10T10:16:57.727Z,20.94
2019-02-10T10:19:23.938Z,21.22
2019-02-10T10:21:50.220Z,21.54
2019-02-10T10:24:16.521Z,21.20
2019-02-10T10:26:42.728Z,20.23
2019-02-10T10:29:09.125Z,20.25
2019-02-10T10:31:35.281Z,20.46
2019-02-10T10:34:01.584Z,20.57
2019-02-10T10:36:27.901Z,20.49
2019-02-10T10:38:54.094Z,20.56
2019-02-10T10:41:20.413Z,21.13
2019-02-10T10:43:46.700Z,21.63
2019-02-10T10:46:12.951Z,21.16
2019-02-10T10:48:39.247Z,20.33
2019-02-10T10:51:05.405Z,20.92
2019-02-10T10:53:31.697Z,21.23
2019-02-10T10:55:58.002Z,21.40
2019-02-10T10:58:24.191Z,20.76
2019-02-10T11:00:50.353Z,21.16
2019-02-10T11:03:17.317Z,20.03
2019-02-10T11:05:43.856Z,20.23
2019-02-10T11:08:10.133Z,21.74
2019-02-10T11:10:36.463Z,22.12
2019-02-10T11:13:02.926Z,22.60
2019-02-10T11:15:29.097Z,21.05
2019-02-10T11:17:55.449Z,21.53
2019-02-10T11:20:21.681Z,21.34
2019-02-10T11:22:47.972Z,21.05
2019-02-10T11:25:14.289Z,19.98
2019-02-10T11:27:40.457Z,18.45
2019-02-10T11:30:11.864Z,18.80
2019-02-10T11:32:38.072Z,19.68
2019-02-10T11:35:05.759Z,19.49
2019-02-10T11:37:32.091Z,19.87
2019-02-10T11:39:58.391Z,20.94
2019-02-10T11:42:24.558Z,21.95
2019-02-10T11:44:54.922Z,20.94
2019-02-10T11:47:27.731Z,20.65
2019-02-10T11:49:53.900Z,21.18
2019-02-10T11:52:20.187Z,21.11
2019-02-10T11:54:46.500Z,20.64
2019-02-10T11:57:12.795Z,21.30
2019-02-10T11:59:39.084Z,21.77
2019-02-10T12:02:05.306Z,23.00
2019-02-10T12:04:31.603Z,23.28
2019-02-10T12:06:57.866Z,21.40
2019-02-10T12:09:24.060Z,21.63
2019-02-10T12:11:50.328Z,21.77
2019-02-10T12:14:16.518Z,20.56
2019-02-10T12:16:42.725Z,21.00
2019-02-10T12:19:09.135Z,21.62
2019-02-10T12:21:36.396Z,21.49
2019-02-10T12:24:02.690Z,20.35
2019-02-10T12:26:28.981Z,20.42
2019-02-10T12:28:55.260Z,20.82
2019-02-10T12:31:21.542Z,20.69
2019-02-10T12:33:47.707Z,21.60
2019-02-10T12:36:13.860Z,21.20
2019-02-10T12:38:40.185Z,20.56
2019-02-10T12:41:06.458Z,20.96
2019-02-10T12:43:36.934Z,20.36
2019-02-10T12:46:03.130Z,20.70
2019-02-10T12:48:29.401Z,21.78
2019-02-10T12:50:55.657Z,21.94
2019-02-10T12:53:21.976Z,21.47
2019-02-10T12:55:48.142Z,21.72
2019-02-10T12:58:14.418Z,21.44
2019-02-10T13:00:43.279Z,22.05
2019-02-10T13:03:09.454Z,22.48
2019-02-10T13:05:35.752Z,21.36
2019-02-10T13:08:02.124Z,20.87
2019-02-10T13:10:28.451Z,20.71
2019-02-10T13:12:54.577Z,21.05
2019-02-10T13:15:20.773Z,20.37
2019-02-10T13:17:48.933Z,20.44
2019-02-10T13:20:15.094Z,20.47
2019-02-10T13:22:41.418Z,20.56
2019-02-10T13:25:09.572Z,20.93
2019-02-10T13:27:35.918Z,21.25
2019-02-10T13:30:04.121Z,21.37
2019-02-10T13:32:30.279Z,20.79
2019-02-10T13:34:56.621Z,20.50
2019-02-10T13:37:23.015Z,20.81
2019-02-10T13:39:49.289Z,19.81
2019-02-10T13:42:15.456Z,19.51
2019-02-10T13:44:41.642Z,19.28
2019-02-10T13:47:07.806Z,20.08
2019-02-10T13:49:33.969Z,20.60
2019-02-10T13:52:00.279Z,20.55
2019-02-10T13:54:26.526Z,19.46
2019-02-10T13:56:52.685Z,20.06
2019-02-10T13:59:18.903Z,19.81
2019-02-10T14:01:45.065Z,20.25
2019-02-10T14:04:11.233Z,20.26
2019-02-10T14:06:37.420Z,20.69
2019-02-10T14:09:06.408Z,20.12
2019-02-10T14:11:36.295Z,20.13
2019-02-10T14:14:02.616Z,19.69
2019-02-10T14:16:28.799Z,18.91
2019-02-10T14:18:54.973Z,18.36
2019-02-10T14:21:21.202Z,19.06
2019-02-10T14:23:47.369Z,18.88
2019-02-10T14:26:13.570Z,19.00
2019-02-10T14:28:39.800Z,18.95
2019-02-10T14:31:06.007Z,19.18
2019-02-10T14:33:38.644Z,19.29
2019-02-10T14:36:00.431Z,19.30
2019-02-10T14:38:26.609Z,19.26
2019-02-10T14:40:53.022Z,19.32
2019-02-10T14:43:19.345Z,19.31
2019-02-10T14:45:45.523Z,19.29
2019-02-10T14:48:11.808Z,18.80
2019-02-10T14:50:38.128Z,19.26
2019-02-10T14:53:04.305Z,19.08
2019-02-10T14:55:30.489Z,18.71
2019-02-10T14:57:56.706Z,18.62
2019-02-10T15:00:23.018Z,18.25
2019-02-10T15:02:49.216Z,18.12
2019-02-10T15:05:15.544Z,18.19
2019-02-10T15:07:41.729Z,18.11
2019-02-10T15:10:11.970Z,17.97
2019-02-10T15:12:38.369Z,18.12
2019-02-10T15:15:07.568Z,18.00
2019-02-10T15:17:33.966Z,17.97
2019-02-10T15:20:00.598Z,17.91
2019-02-10T15:22:26.996Z,17.83
2019-02-10T15:24:53.287Z,17.62
2019-02-10T15:27:20.051Z,17.41
2019-02-10T15:29:46.384Z,16.98
2019-02-10T15:32:16.979Z,16.69
2019-02-10T15:34:43.574Z,16.57
2019-02-10T15:37:09.772Z,16.52
2019-02-10T15:39:35.941Z,16.51
2019-02-10T15:42:09.282Z,16.40
2019-02-10T15:44:30.435Z,16.11
2019-02-10T15:46:56.718Z,15.79
2019-02-10T15:49:23.053Z,15.69
2019-02-10T15:51:49.238Z,15.74
2019-02-10T15:54:15.420Z,15.69
2019-02-10T15:56:41.654Z,15.60
2019-02-10T15:59:07.962Z,15.33
2019-02-10T16:01:34.243Z,15.08
2019-02-10T16:04:00.453Z,15.14
2019-02-10T16:06:26.745Z,14.95
2019-02-10T16:08:53.033Z,14.58
2019-02-10T16:11:19.269Z,14.27
2019-02-10T16:13:45.570Z,14.36
2019-02-10T16:16:11.766Z,14.10
2019-02-10T16:18:38.133Z,13.97
2019-02-10T16:21:04.420Z,13.73
2019-02-10T16:23:30.723Z,13.61
2019-02-10T16:25:56.938Z,13.56
2019-02-10T16:28:23.107Z,13.57
2019-02-10T16:30:49.385Z,13.78
2019-02-10T16:33:15.625Z,13.89
2019-02-10T16:35:41.911Z,13.69
2019-02-10T16:38:08.090Z,13.65
2019-02-10T16:40:34.310Z,13.72
2019-02-10T16:43:00.649Z,13.79
2019-02-10T16:45:26.833Z,13.47
2019-02-10T16:47:53.172Z,13.50
2019-02-10T16:50:19.443Z,13.74
2019-02-10T16:52:45.741Z,13.62
2019-02-10T16:55:17.393Z,13.41
2019-02-10T16:57:43.556Z,13.48
2019-02-10T17:00:11.958Z,13.40
2019-02-10T17:02:47.814Z,13.29
2019-02-10T17:05:14.191Z,13.25
2019-02-10T17:07:40.509Z,13.12
2019-02-10T17:10:09.546Z,12.98
2019-02-10T17:12:35.957Z,12.77
2019-02-10T17:15:03.930Z,12.72
2019-02-10T17:17:30.265Z,12.93
2019-02-10T17:19:56.554Z,12.94
2019-02-10T17:22:23.973Z,13.05
2019-02-10T17:24:50.268Z,13.22
2019-02-10T17:27:16.442Z,13.36
2019-02-10T17:29:42.730Z,13.31
2019-02-10T17:32:08.952Z,13.21
2019-02-10T17:34:35.146Z,13.05
2019-02-10T17:37:01.425Z,12.93
2019-02-10T17:39:27.645Z,12.69
2019-02-10T17:41:53.825Z,12.84
2019-02-10T17:44:20.101Z,12.86
2019-02-10T17:46:46.328Z,12.89
2019-02-10T17:49:12.621Z,12.99
2019-02-10T17:51:38.898Z,13.06
2019-02-10T17:54:05.144Z,13.04
2019-02-10T17:56:31.313Z,13.07
2019-02-10T17:58:57.604Z,13.35
2019-02-10T18:01:23.916Z,13.57
2019-02-10T18:03:50.280Z,13.65
2019-02-10T18:06:16.603Z,13.68
2019-02-10T18:08:42.834Z,13.62
2019-02-10T18:11:09.016Z,13.64
2019-02-10T18:13:35.297Z,13.70
2019-02-10T18:16:03.442Z,13.72
2019-02-10T18:18:31.533Z,13.69
2019-02-10T18:21:18.434Z,13.91
2019-02-10T18:24:11.969Z,13.80
2019-02-10T18:26:40.149Z,13.42
2019-02-10T18:29:10.921Z,13.90
2019-02-10T18:31:44.910Z,13.88
2019-02-10T18:34:21.644Z,14.08
2019-02-10T18:36:49.773Z,13.79
2019-02-10T18:39:20.820Z,13.33
2019-02-10T18:41:48.899Z,13.49
2019-02-10T18:44:17.030Z,13.27
2019-02-10T18:46:56.960Z,13.65
2019-02-10T18:49:28.073Z,13.46
2019-02-10T18:52:01.746Z,13.43
2019-02-10T18:54:38.698Z,13.90
2019-02-10T18:57:06.781Z,13.76
2019-02-10T18:59:34.883Z,14.19
2019-02-10T19:02:03.028Z,14.46
2019-02-10T19:04:31.117Z,14.06
2019-02-10T19:07:01.746Z,14.17
2019-02-10T20:29:23.360Z,14.90
2019-02-10T20:31:51.530Z,14.55
2019-02-10T20:34:28.432Z,14.74
2019-02-10T20:36:56.564Z,14.73
2019-02-10T20:39:30.417Z,14.88
2019-02-10T20:42:12.443Z,14.84
2019-02-10T20:44:44.137Z,14.97
2019-02-10T20:47:24.088Z,14.78
2019-02-10T20:49:54.941Z,14.79
2019-02-10T20:52:32.789Z,14.66
2019-02-10T20:55:09.739Z,14.41
2019-02-10T20:57:40.636Z,14.53
2019-02-10T21:00:27.319Z,14.56
2019-02-10T21:03:00.991Z,14.32
2019-02-10T21:05:47.295Z,14.38
2019-02-10T21:08:31.846Z,13.78
2019-02-10T21:11:02.475Z,14.05
2019-02-10T21:13:33.127Z,13.71
2019-02-10T21:16:01.272Z,13.66
2019-02-10T21:18:45.921Z,13.83
2019-02-10T21:21:30.404Z,13.55
2019-02-10T21:23:58.494Z,13.45
2019-02-10T21:26:32.376Z,13.56
2019-02-10T21:29:00.460Z,13.32
2019-02-10T21:31:34.167Z,13.60
2019-02-10T21:34:02.252Z,13.40
2019-02-10T21:36:35.989Z,13.42
2019-02-10T21:39:21.665Z,13.37
2019-02-10T21:42:04.664Z,13.50
2019-02-10T21:44:32.753Z,13.08
2019-02-10T21:47:17.397Z,13.62
2019-02-10T21:49:43.680Z,13.44
2019-02-10T21:52:09.981Z,13.15
2019-02-10T21:54:36.201Z,13.45
2019-02-10T21:57:02.376Z,13.38
2019-02-10T21:59:28.672Z,13.35
2019-02-10T22:01:54.883Z,13.41
2019-02-10T22:04:21.049Z,13.36
2019-02-10T22:06:47.339Z,13.25
2019-02-10T22:09:13.554Z,13.23
2019-02-10T22:11:39.735Z,13.33
2019-02-10T22:14:06.793Z,13.11
2019-02-10T22:16:33.019Z,13.04
2019-02-10T22:18:59.189Z,12.98
2019-02-10T22:21:25.401Z,12.93
2019-02-10T22:23:51.618Z,12.87
2019-02-10T22:26:17.802Z,12.81
2019-02-10T22:28:43.977Z,12.73
2019-02-10T22:31:18.450Z,12.54
2019-02-10T22:33:38.363Z,12.52
2019-02-10T22:36:04.543Z,12.58
2019-02-10T22:38:30.856Z,12.39
2019-02-10T22:40:57.035Z,12.33
2019-02-10T22:43:23.215Z,12.48
2019-02-10T22:45:49.443Z,12.06
2019-02-10T22:48:15.716Z,11.83
2019-02-10T22:50:41.894Z,12.02
2019-02-10T22:53:08.111Z,11.88
2019-02-10T22:55:34.291Z,12.01
2019-02-10T22:58:00.477Z,11.97
2019-02-10T23:00:49.226Z,11.95
2019-02-10T23:03:15.413Z,12.16
2019-02-10T23:05:42.288Z,12.28
2019-02-10T23:08:08.635Z,12.26
2019-02-10T23:10:34.813Z,12.11
2019-02-10T23:13:00.995Z,12.07
2019-02-10T23:15:27.220Z,12.18
2019-02-10T23:17:53.409Z,12.17
2019-02-10T23:20:19.696Z,11.90
2019-02-10T23:22:45.926Z,11.86
2019-02-10T23:25:12.103Z,12.06
2019-02-10T23:27:38.288Z,11.93
2019-02-10T23:30:05.606Z,12.12
2019-02-10T23:32:31.790Z,12.12
2019-02-10T23:34:58.070Z,12.26
2019-02-10T23:37:24.303Z,11.79
2019-02-10T23:39:50.496Z,11.81
2019-02-10T23:42:16.770Z,11.42
2019-02-10T23:44:43.010Z,11.84
2019-02-10T23:47:09.199Z,11.68
2019-02-10T23:49:35.383Z,11.91
2019-02-10T23:52:01.696Z,11.80
2019-02-10T23:54:27.892Z,11.89
2019-02-10T23:56:54.061Z,11.83
2019-02-10T23:59:20.395Z,11.77
